createdAt,value
2018-02-10T00:00:10.951Z,87.80
2018-02-10T00:02:14.337Z,87.80
2018-02-10T00:04:16.941Z,87.80
2018-02-10T00:06:19.543Z,87.70
2018-02-10T00:08:22.137Z,88.00
2018-02-10T00:10:24.736Z,87.90
2018-02-10T00:12:27.447Z,87.80
2018-02-10T00:14:30.054Z,87.80
2018-02-10T00:16:32.637Z,87.80
2018-02-10T00:18:35.232Z,87.80
2018-02-10T00:20:37.836Z,87.60
2018-02-10T00:22:40.449Z,87.40
2018-02-10T00:24:43.037Z,87.70
2018-02-10T00:26:45.689Z,88.00
2018-02-10T00:28:48.369Z,88.40
2018-02-10T00:30:50.968Z,88.20
2018-02-10T00:32:53.605Z,87.80
2018-02-10T00:34:56.195Z,87.70
2018-02-10T00:36:58.854Z,88.20
2018-02-10T00:39:01.452Z,88.10
2018-02-10T00:41:04.817Z,88.80
2018-02-10T00:43:07.421Z,88.70
2018-02-10T00:45:10.793Z,88.10
2018-02-10T00:47:13.380Z,88.10
2018-02-10T00:49:15.989Z,88.40
2018-02-10T00:51:18.944Z,87.90
2018-02-10T00:53:21.525Z,88.00
2018-02-10T00:55:24.157Z,88.80
2018-02-10T00:57:26.853Z,89.10
2018-02-10T00:59:29.454Z,89.20
2018-02-10T01:01:32.062Z,89.30
2018-02-10T01:03:35.437Z,89.40
2018-02-10T01:05:38.013Z,88.80
2018-02-10T01:07:40.601Z,88.70
2018-02-10T01:09:43.976Z,88.40
2018-02-10T01:11:46.678Z,88.40
2018-02-10T01:13:49.257Z,88.20
2018-02-10T01:15:51.876Z,88.50
2018-02-10T01:17:55.233Z,88.40
2018-02-10T01:19:57.917Z,88.30
2018-02-10T01:22:00.492Z,88.40
2018-02-10T01:24:03.069Z,88.30
2018-02-10T01:26:05.682Z,88.70
2018-02-10T01:28:08.365Z,88.30
2018-02-10T01:30:10.965Z,88.30
2018-02-10T01:32:13.573Z,87.70
2018-02-10T01:34:16.171Z,88.20
2018-02-10T01:36:18.728Z,88.80
2018-02-10T01:38:22.101Z,88.40
2018-02-10T01:40:24.688Z,88.40
2018-02-10T01:42:27.301Z,88.20
2018-02-10T01:44:30.969Z,88.40
2018-02-10T01:46:33.555Z,88.80
2018-02-10T01:48:36.157Z,89.00
2018-02-10T01:50:39.508Z,88.40
2018-02-10T01:52:42.126Z,88.30
2018-02-10T01:54:44.793Z,88.60
2018-02-10T01:56:47.384Z,88.50
2018-02-10T01:58:50.810Z,88.70
2018-02-10T02:00:53.459Z,88.70
2018-02-10T02:02:56.057Z,88.60
2018-02-10T02:04:58.638Z,88.40
2018-02-10T02:07:01.269Z,88.20
2018-02-10T02:09:04.618Z,88.20
2018-02-10T02:11:07.980Z,88.20
2018-02-10T02:13:10.602Z,88.20
2018-02-10T02:15:13.197Z,88.30
2018-02-10T02:17:16.570Z,87.90
2018-02-10T02:19:19.165Z,87.80
2018-02-10T02:21:22.584Z,88.60
2018-02-10T02:23:25.185Z,88.50
2018-02-10T02:25:27.767Z,88.10
2018-02-10T02:27:30.372Z,88.40
2018-02-10T02:29:33.062Z,88.50
2018-02-10T02:31:36.441Z,88.50
2018-02-10T02:33:39.020Z,88.60
2018-02-10T02:35:42.389Z,88.10
2018-02-10T02:37:44.998Z,88.10
2018-02-10T02:39:48.348Z,89.50
2018-02-10T02:41:51.745Z,89.10
2018-02-10T02:43:54.335Z,89.10
2018-02-10T02:45:56.949Z,89.20
2018-02-10T02:48:00.632Z,89.00
2018-02-10T02:50:04.009Z,88.80
2018-02-10T02:52:07.362Z,88.50
2018-02-10T02:54:09.987Z,88.50
2018-02-10T02:56:13.349Z,89.40
2018-02-10T02:58:15.933Z,89.40
2018-02-10T03:00:18.516Z,90.10
2018-02-10T03:02:21.169Z,90.10
2018-02-10T03:04:23.764Z,90.10
2018-02-10T03:06:27.274Z,90.20
2018-02-10T03:08:30.661Z,90.00
2018-02-10T03:10:34.028Z,90.00
2018-02-10T03:12:36.702Z,90.00
2018-02-10T03:14:39.296Z,90.00
2018-02-10T03:16:42.677Z,90.00
2018-02-10T03:18:45.252Z,89.90
2018-02-10T03:20:47.838Z,89.50
2018-02-10T03:22:51.216Z,90.10
2018-02-10T03:24:53.796Z,90.10
2018-02-10T03:26:56.389Z,90.00
2018-02-10T03:28:59.780Z,89.40
2018-02-10T03:31:03.148Z,89.70
2018-02-10T03:33:05.774Z,89.70
2018-02-10T03:35:08.357Z,89.70
2018-02-10T03:37:11.028Z,89.50
2018-02-10T03:39:13.649Z,89.20
2018-02-10T03:41:16.234Z,89.10
2018-02-10T03:43:19.592Z,89.80
2018-02-10T03:45:22.196Z,89.80
2018-02-10T03:47:24.822Z,89.80
2018-02-10T03:49:27.426Z,89.60
2018-02-10T03:51:30.005Z,89.70
2018-02-10T03:53:32.584Z,90.00
2018-02-10T03:55:36.069Z,90.00
2018-02-10T03:57:38.663Z,89.80
2018-02-10T03:59:41.252Z,90.10
2018-02-10T04:01:44.680Z,90.00
2018-02-10T04:03:47.270Z,90.00
2018-02-10T04:05:49.873Z,89.90
2018-02-10T04:07:52.459Z,89.70
2018-02-10T04:09:55.828Z,89.70
2018-02-10T04:11:58.424Z,89.70
2018-02-10T04:14:01.785Z,89.30
2018-02-10T04:16:04.392Z,89.30
2018-02-10T04:18:07.740Z,88.30
2018-02-10T04:20:10.343Z,88.30
2018-02-10T04:22:12.951Z,88.30
2018-02-10T04:24:15.553Z,88.30
2018-02-10T04:26:18.160Z,87.90
2018-02-10T04:28:20.781Z,87.10
2018-02-10T04:30:23.364Z,86.50
2018-02-10T04:32:26.733Z,86.40
2018-02-10T04:34:29.316Z,86.30
2018-02-10T04:36:31.905Z,86.30
2018-02-10T04:38:34.511Z,86.10
2018-02-10T04:40:37.144Z,86.40
2018-02-10T04:42:40.586Z,86.00
2018-02-10T04:44:43.182Z,86.10
2018-02-10T04:46:46.612Z,85.80
2018-02-10T04:48:49.220Z,85.90
2018-02-10T04:50:51.794Z,86.10
2018-02-10T04:52:54.392Z,85.70
2018-02-10T04:54:56.972Z,85.70
2018-02-10T04:57:00.349Z,86.30
2018-02-10T04:59:02.924Z,86.30
2018-02-10T05:01:05.532Z,86.20
2018-02-10T05:03:08.137Z,86.00
2018-02-10T05:05:10.716Z,85.70
2018-02-10T05:07:13.365Z,85.60
2018-02-10T05:09:16.033Z,85.70
2018-02-10T05:11:18.608Z,85.60
2018-02-10T05:13:21.367Z,85.40
2018-02-10T05:15:28.897Z,85.40
2018-02-10T05:17:31.486Z,85.30
2018-02-10T05:19:35.946Z,85.50
2018-02-10T05:21:40.593Z,85.70
2018-02-10T05:23:45.192Z,85.60
2018-02-10T05:25:48.573Z,85.30
2018-02-10T05:27:51.941Z,85.80
2018-02-10T05:29:54.528Z,85.20
2018-02-10T05:31:57.122Z,85.50
2018-02-10T05:34:00.487Z,85.80
2018-02-10T05:36:03.091Z,85.80
2018-02-10T05:38:06.441Z,86.00
2018-02-10T05:40:09.022Z,85.90
2018-02-10T05:42:11.621Z,86.30
2018-02-10T05:44:14.233Z,85.90
2018-02-10T05:46:16.876Z,86.60
2018-02-10T05:48:20.224Z,85.70
2018-02-10T05:50:23.579Z,86.00
2018-02-10T05:52:26.177Z,85.70
2018-02-10T05:54:28.786Z,86.00
2018-02-10T05:56:31.373Z,86.20
2018-02-10T05:58:33.975Z,85.40
2018-02-10T06:00:36.605Z,85.30
2018-02-10T06:02:39.261Z,86.20
2018-02-10T06:04:43.707Z,86.70
2018-02-10T06:06:46.280Z,86.50
2018-02-10T06:08:48.884Z,86.60
2018-02-10T06:10:52.253Z,86.60
2018-02-10T06:12:54.868Z,86.60
2018-02-10T06:14:57.450Z,86.00
2018-02-10T06:17:00.232Z,86.30
2018-02-10T06:19:03.238Z,86.00
2018-02-10T06:21:06.584Z,86.30
2018-02-10T06:23:09.171Z,86.10
2018-02-10T06:25:12.162Z,85.80
2018-02-10T06:27:14.779Z,85.70
2018-02-10T06:29:18.904Z,86.00
2018-02-10T06:31:22.248Z,86.60
2018-02-10T06:33:25.057Z,86.20
2018-02-10T06:35:27.877Z,86.40
2018-02-10T06:37:30.649Z,86.60
2018-02-10T06:39:34.045Z,86.70
2018-02-10T06:41:36.644Z,86.60
2018-02-10T06:43:39.232Z,86.90
2018-02-10T06:45:41.861Z,87.00
2018-02-10T06:47:45.231Z,86.90
2018-02-10T06:49:47.828Z,86.90
2018-02-10T06:51:51.212Z,87.40
2018-02-10T06:53:54.560Z,86.80
2018-02-10T06:55:58.136Z,86.90
2018-02-10T06:58:01.498Z,86.90
2018-02-10T07:00:04.843Z,87.10
2018-02-10T07:02:07.417Z,87.10
2018-02-10T07:04:10.001Z,87.10
2018-02-10T07:06:12.604Z,87.10
2018-02-10T07:08:15.961Z,88.20
2018-02-10T07:10:18.576Z,88.30
2018-02-10T07:12:21.214Z,88.10
2018-02-10T07:14:23.796Z,88.30
2018-02-10T07:16:26.386Z,87.80
2018-02-10T07:18:28.962Z,88.00
2018-02-10T07:20:32.323Z,88.30
2018-02-10T07:22:34.917Z,87.90
2018-02-10T07:24:37.499Z,87.60
2018-02-10T07:26:40.101Z,87.20
2018-02-10T07:28:42.680Z,87.30
2018-02-10T07:30:46.029Z,86.70
2018-02-10T07:32:49.729Z,86.70
2018-02-10T07:34:52.314Z,87.00
2018-02-10T07:36:55.027Z,86.60
2018-02-10T07:38:57.888Z,87.20
2018-02-10T07:41:01.461Z,86.60
2018-02-10T07:43:04.137Z,86.50
2018-02-10T07:45:06.729Z,87.00
2018-02-10T07:47:10.076Z,86.20
2018-02-10T07:49:12.681Z,86.10
2018-02-10T07:51:15.260Z,86.40
2018-02-10T07:53:18.636Z,86.00
2018-02-10T07:55:21.225Z,86.00
2018-02-10T07:57:24.004Z,86.40
2018-02-10T07:59:27.373Z,86.60
2018-02-10T08:01:30.721Z,86.40
2018-02-10T08:03:34.172Z,86.40
2018-02-10T08:05:36.781Z,86.40
2018-02-10T08:07:39.374Z,86.60
2018-02-10T08:09:41.965Z,86.70
2018-02-10T08:11:44.565Z,87.30
2018-02-10T08:13:47.169Z,86.70
2018-02-10T08:15:50.554Z,86.30
2018-02-10T08:17:53.930Z,86.00
2018-02-10T08:19:56.518Z,86.00
2018-02-10T08:21:59.878Z,87.30
2018-02-10T08:24:02.482Z,87.80
2018-02-10T08:26:05.833Z,87.40
2018-02-10T08:28:08.476Z,87.30
2018-02-10T08:30:11.068Z,87.50
2018-02-10T08:32:13.682Z,88.00
2018-02-10T08:34:16.305Z,88.10
2018-02-10T08:36:18.900Z,88.70
2018-02-10T08:38:21.500Z,88.30
2018-02-10T08:40:24.103Z,87.30
2018-02-10T08:42:27.535Z,87.30
2018-02-10T08:44:30.136Z,87.30
2018-02-10T08:46:33.995Z,87.40
2018-02-10T08:48:36.606Z,87.70
2018-02-10T08:50:39.998Z,87.50
2018-02-10T08:52:42.590Z,87.50
2018-02-10T08:54:45.177Z,87.00
2018-02-10T08:56:48.566Z,86.90
2018-02-10T08:58:51.172Z,86.90
2018-02-10T09:00:53.760Z,86.70
2018-02-10T09:02:56.421Z,87.50
2018-02-10T09:04:59.005Z,85.90
2018-02-10T09:07:01.789Z,84.70
2018-02-10T09:09:04.381Z,84.30
2018-02-10T09:11:06.954Z,84.50
2018-02-10T09:13:09.638Z,85.00
2018-02-10T09:15:12.259Z,84.80
2018-02-10T09:17:15.682Z,84.30
2018-02-10T09:19:18.272Z,84.30
2018-02-10T09:21:20.852Z,84.40
2018-02-10T09:23:23.484Z,84.90
2018-02-10T09:25:26.534Z,84.50
2018-02-10T09:27:29.193Z,83.70
2018-02-10T09:29:32.229Z,83.60
2018-02-10T09:31:34.908Z,84.60
2018-02-10T09:33:37.542Z,84.50
2018-02-10T09:35:40.156Z,84.00
2018-02-10T09:37:42.737Z,84.40
2018-02-10T09:39:45.342Z,85.00
2018-02-10T09:41:47.975Z,84.90
2018-02-10T09:43:51.370Z,83.60
2018-02-10T09:45:53.973Z,83.50
2018-02-10T09:47:57.101Z,82.60
2018-02-10T09:49:59.714Z,82.20
2018-02-10T09:52:02.334Z,82.00
2018-02-10T09:54:04.913Z,81.60
2018-02-10T09:56:07.517Z,82.30
2018-02-10T09:58:10.893Z,81.60
2018-02-10T10:00:13.498Z,81.60
2018-02-10T10:02:16.105Z,81.30
2018-02-10T10:04:18.691Z,81.60
2018-02-10T10:06:21.316Z,80.90
2018-02-10T10:08:30.487Z,79.00
2018-02-10T10:10:33.837Z,78.50
2018-02-10T10:12:36.430Z,78.50
2018-02-10T10:14:39.034Z,78.90
2018-02-10T10:16:42.521Z,78.60
2018-02-10T10:18:45.870Z,77.70
2018-02-10T10:20:49.227Z,76.80
2018-02-10T10:22:52.016Z,76.80
2018-02-10T10:24:54.596Z,76.30
2018-02-10T10:26:57.981Z,76.80
2018-02-10T10:29:00.617Z,76.70
2018-02-10T10:31:03.230Z,75.60
2018-02-10T10:33:06.605Z,77.10
2018-02-10T10:35:09.660Z,77.90
2018-02-10T10:37:13.094Z,74.80
2018-02-10T10:39:15.729Z,75.30
2018-02-10T10:41:18.320Z,76.00
2018-02-10T10:43:20.925Z,75.10
2018-02-10T10:45:24.400Z,74.70
2018-02-10T10:49:51.744Z,74.20
2018-02-10T10:51:59.501Z,75.30
2018-02-10T10:54:02.705Z,73.70
2018-02-10T10:56:05.336Z,74.10
2018-02-10T10:58:08.169Z,75.30
2018-02-10T11:00:10.784Z,74.70
2018-02-10T11:02:14.061Z,73.50
2018-02-10T11:04:16.710Z,73.60
2018-02-10T11:06:20.073Z,74.50
2018-02-10T11:08:23.425Z,73.40
2018-02-10T11:10:26.150Z,73.40
2018-02-10T11:12:29.607Z,74.00
2018-02-10T11:14:32.199Z,74.00
2018-02-10T11:16:34.830Z,72.80
2018-02-10T11:18:37.425Z,72.60
2018-02-10T11:20:40.781Z,72.70
2018-02-10T11:22:43.722Z,72.80
2018-02-10T11:24:46.448Z,72.90
2018-02-10T11:26:54.878Z,73.60
2018-02-10T11:28:58.066Z,74.70
2018-02-10T11:31:00.661Z,74.40
2018-02-10T11:33:03.461Z,74.60
2018-02-10T11:35:06.839Z,74.80
2018-02-10T11:37:13.570Z,74.70
2018-02-10T11:39:16.195Z,75.50
2018-02-10T11:41:19.537Z,74.20
2018-02-10T11:43:22.204Z,74.10
2018-02-10T11:45:24.817Z,73.80
2018-02-10T11:47:27.401Z,73.70
2018-02-10T11:49:30.919Z,73.40
2018-02-10T11:51:33.514Z,73.40
2018-02-10T11:53:36.766Z,73.70
2018-02-10T11:55:40.184Z,73.70
2018-02-10T11:57:42.780Z,73.70
2018-02-10T11:59:45.413Z,73.60
2018-02-10T12:01:48.813Z,73.70
2018-02-10T12:03:52.164Z,74.00
2018-02-10T12:05:54.781Z,73.90
2018-02-10T12:07:58.144Z,74.00
2018-02-10T12:10:00.797Z,73.90
2018-02-10T12:12:03.400Z,74.20
2018-02-10T12:14:06.313Z,74.20
2018-02-10T12:16:08.942Z,75.10
2018-02-10T12:18:11.528Z,74.70
2018-02-10T12:20:14.121Z,74.80
2018-02-10T12:22:17.552Z,75.90
2018-02-10T12:24:20.128Z,75.90
2018-02-10T12:26:22.697Z,76.00
2018-02-10T12:28:25.324Z,75.80
2018-02-10T12:30:27.929Z,76.00
2018-02-10T12:32:30.596Z,76.20
2018-02-10T12:34:33.955Z,76.40
2018-02-10T12:36:36.545Z,76.40
2018-02-10T12:38:40.037Z,77.20
2018-02-10T12:40:42.630Z,76.60
2018-02-10T12:42:46.291Z,78.10
2018-02-10T12:44:49.007Z,78.10
2018-02-10T12:46:51.602Z,77.70
2018-02-10T12:48:59.832Z,78.50
2018-02-10T12:51:02.434Z,78.40
2018-02-10T12:53:05.817Z,78.20
2018-02-10T12:55:08.461Z,78.20
2018-02-10T12:57:11.101Z,78.70
2018-02-10T12:59:13.712Z,78.40
2018-02-10T13:01:16.301Z,78.60
2018-02-10T13:03:19.649Z,79.20
2018-02-10T13:05:22.247Z,79.10
2018-02-10T13:07:24.849Z,79.30
2018-02-10T13:09:27.481Z,80.00
2018-02-10T13:11:30.073Z,80.10
2018-02-10T13:13:32.683Z,80.40
2018-02-10T13:15:35.325Z,80.10
2018-02-10T13:17:37.909Z,79.80
2018-02-10T13:19:41.317Z,79.40
2018-02-10T13:21:43.913Z,79.40
2018-02-10T13:23:47.277Z,79.90
2018-02-10T13:25:49.877Z,79.80
2018-02-10T13:27:52.489Z,79.90
2018-02-10T13:29:55.438Z,79.80
2018-02-10T13:31:58.017Z,79.80
2018-02-10T13:34:01.818Z,80.80
2018-02-10T13:36:05.210Z,80.80
2018-02-10T13:38:08.571Z,80.40
2018-02-10T13:40:12.133Z,80.30
2018-02-10T13:42:14.737Z,80.20
2018-02-10T13:44:17.321Z,80.70
2018-02-10T13:46:20.082Z,80.50
2018-02-10T13:48:34.568Z,81.00
2018-02-10T13:50:37.965Z,80.70
2018-02-10T13:52:40.918Z,80.70
2018-02-10T13:54:43.544Z,79.90
2018-02-10T13:56:46.148Z,80.00
2018-02-10T13:58:48.796Z,79.80
2018-02-10T14:00:51.415Z,79.80
2018-02-10T14:02:53.998Z,79.70
2018-02-10T14:04:56.600Z,80.40
2018-02-10T14:06:59.950Z,80.00
2018-02-10T14:09:02.531Z,80.00
2018-02-10T14:11:05.137Z,79.70
2018-02-10T14:13:08.508Z,80.10
2018-02-10T14:15:11.129Z,79.50
2018-02-10T14:17:13.743Z,79.50
2018-02-10T14:19:17.114Z,79.50
2018-02-10T14:21:19.725Z,79.50
2018-02-10T14:23:22.344Z,79.20
2018-02-10T14:25:24.973Z,78.80
2018-02-10T14:27:27.573Z,79.00
2018-02-10T14:29:30.929Z,79.00
2018-02-10T14:31:33.525Z,79.00
2018-02-10T14:33:36.110Z,78.90
2018-02-10T14:35:39.527Z,78.40
2018-02-10T14:37:42.880Z,78.10
2018-02-10T14:39:45.505Z,78.10
2018-02-10T14:41:48.070Z,78.20
2018-02-10T14:43:50.694Z,77.70
2018-02-10T14:45:53.321Z,78.30
2018-02-10T14:47:56.009Z,78.40
2018-02-10T14:49:58.605Z,78.30
2018-02-10T14:52:01.194Z,78.30
2018-02-10T14:54:03.796Z,78.90
2018-02-10T14:56:07.182Z,79.20
2018-02-10T14:58:09.753Z,79.20
2018-02-10T15:00:13.129Z,78.40
2018-02-10T15:02:15.750Z,78.20
2018-02-10T15:04:20.888Z,78.40
2018-02-10T15:06:23.512Z,78.40
2018-02-10T15:08:26.094Z,78.90
2018-02-10T15:10:28.694Z,79.40
2018-02-10T15:12:32.040Z,78.40
2018-02-10T15:14:34.644Z,78.40
2018-02-10T15:16:38.009Z,78.90
2018-02-10T15:18:40.616Z,78.20
2018-02-10T15:20:43.986Z,78.00
2018-02-10T15:22:46.574Z,78.00
2018-02-10T15:24:49.192Z,78.40
2018-02-10T15:26:51.815Z,78.30
2018-02-10T15:28:54.391Z,77.90
2018-02-10T15:31:08.818Z,78.20
2018-02-10T15:33:23.105Z,77.80
2018-02-10T15:35:26.461Z,77.60
2018-02-10T15:37:29.089Z,77.50
2018-02-10T15:39:31.706Z,77.60
2018-02-10T15:41:34.353Z,77.50
2018-02-10T15:43:36.965Z,77.80
2018-02-10T15:45:39.565Z,78.00
2018-02-10T15:47:42.995Z,78.50
2018-02-10T15:49:45.609Z,78.50
2018-02-10T15:51:48.270Z,78.30
2018-02-10T15:53:50.982Z,78.10
2018-02-10T15:55:53.561Z,78.40
2018-02-10T15:57:56.907Z,78.30
2018-02-10T15:59:59.525Z,78.30
2018-02-10T16:02:02.132Z,78.60
2018-02-10T16:04:04.740Z,78.50
2018-02-10T16:06:07.325Z,79.00
2018-02-10T16:08:09.901Z,79.50
2018-02-10T16:10:13.876Z,79.30
2018-02-10T16:14:25.462Z,79.30
2018-02-10T16:16:28.063Z,79.10
2018-02-10T16:18:31.545Z,79.50
2018-02-10T16:20:34.185Z,79.50
2018-02-10T16:22:37.549Z,79.50
2018-02-10T16:24:40.154Z,79.50
2018-02-10T16:26:43.492Z,79.60
2018-02-10T16:28:46.094Z,79.70
2018-02-10T16:30:48.746Z,79.70
2018-02-10T16:32:51.335Z,80.00
2018-02-10T16:34:53.977Z,80.00
2018-02-10T16:36:56.594Z,80.00
2018-02-10T16:38:59.204Z,79.90
2018-02-10T16:41:01.861Z,80.50
2018-02-10T16:43:05.293Z,80.90
2018-02-10T16:45:07.894Z,80.90
2018-02-10T16:47:10.502Z,81.10
2018-02-10T16:49:13.866Z,81.30
2018-02-10T16:51:16.464Z,81.30
2018-02-10T16:53:19.840Z,82.00
2018-02-10T16:55:22.421Z,81.90
2018-02-10T16:57:25.035Z,81.80
2018-02-10T16:59:27.640Z,83.20
2018-02-10T17:01:30.231Z,82.10
2018-02-10T17:03:33.684Z,82.10
2018-02-10T17:05:36.338Z,82.10
2018-02-10T17:07:39.692Z,82.20
2018-02-10T17:09:42.315Z,82.20
2018-02-10T17:11:44.929Z,82.40
2018-02-10T17:13:47.537Z,82.10
2018-02-10T17:15:50.900Z,82.50
2018-02-10T17:17:53.522Z,82.40
2018-02-10T17:19:56.266Z,82.20
2018-02-10T17:21:58.858Z,82.30
2018-02-10T17:24:02.217Z,82.40
2018-02-10T17:26:04.826Z,82.90
2018-02-10T17:28:08.196Z,81.90
2018-02-10T17:30:10.805Z,81.90
2018-02-10T17:32:14.168Z,82.70
2018-02-10T17:34:16.784Z,82.70
2018-02-10T17:36:19.375Z,83.50
2018-02-10T17:38:21.968Z,83.10
2018-02-10T17:40:24.570Z,83.70
2018-02-10T17:42:27.168Z,83.30
2018-02-10T17:44:29.757Z,83.60
2018-02-10T17:46:32.353Z,83.20
2018-02-10T17:48:34.938Z,83.30
2018-02-10T17:50:37.554Z,83.10
2018-02-10T17:52:40.902Z,82.80
2018-02-10T17:54:43.512Z,82.80
2018-02-10T17:56:46.157Z,83.00
2018-02-10T17:58:48.743Z,83.40
2018-02-10T18:00:51.336Z,83.10
2018-02-10T18:02:54.681Z,83.60
2018-02-10T18:04:57.321Z,83.00
2018-02-10T18:07:00.762Z,83.20
2018-02-10T18:09:03.333Z,83.10
2018-02-10T18:11:05.945Z,83.60
2018-02-10T18:13:09.357Z,83.00
2018-02-10T18:15:11.946Z,83.10
2018-02-10T18:17:14.553Z,83.80
2018-02-10T18:19:17.151Z,83.10
2018-02-10T18:21:19.774Z,83.20
2018-02-10T18:23:22.372Z,83.10
2018-02-10T18:25:24.962Z,83.50
2018-02-10T18:27:27.621Z,83.50
2018-02-10T18:29:30.305Z,83.10
2018-02-10T18:31:32.913Z,83.20
2018-02-10T18:33:36.568Z,83.20
2018-02-10T18:35:39.178Z,83.30
2018-02-10T18:37:42.561Z,83.70
2018-02-10T18:39:45.156Z,83.70
2018-02-10T18:41:48.521Z,83.10
2018-02-10T18:43:51.190Z,83.10
2018-02-10T18:45:53.781Z,82.80
2018-02-10T18:47:56.443Z,83.20
2018-02-10T18:49:59.074Z,82.80
2018-02-10T18:52:01.706Z,83.20
2018-02-10T18:54:04.325Z,83.20
2018-02-10T18:56:06.930Z,82.80
2018-02-10T18:58:09.590Z,82.80
2018-02-10T19:00:12.310Z,82.60
2018-02-10T19:02:14.894Z,82.30
2018-02-10T19:04:18.286Z,83.00
2018-02-10T19:06:21.681Z,83.60
2018-02-10T19:08:25.070Z,83.40
2018-02-10T19:10:28.472Z,84.20
2018-02-10T19:12:31.821Z,83.60
2018-02-10T19:14:35.192Z,83.60
2018-02-10T19:16:37.844Z,83.60
2018-02-10T19:18:40.459Z,83.20
2018-02-10T19:20:43.093Z,83.30
2018-02-10T19:22:45.696Z,83.70
2018-02-10T19:24:48.287Z,83.30
2018-02-10T19:26:51.669Z,83.10
2018-02-10T19:28:54.301Z,83.30
2018-02-10T19:30:57.675Z,83.80
2018-02-10T19:33:00.310Z,83.80
2018-02-10T19:35:02.954Z,84.30
2018-02-10T19:37:05.552Z,84.40
2018-02-10T19:39:08.162Z,84.30
2018-02-10T19:41:10.749Z,84.60
2018-02-10T19:43:14.109Z,84.90
2018-02-10T19:45:16.720Z,84.90
2018-02-10T19:47:21.141Z,85.50
2018-02-10T19:49:24.576Z,84.90
2018-02-10T19:51:27.166Z,84.90
2018-02-10T19:53:29.763Z,85.40
2018-02-10T19:55:32.426Z,85.40
2018-02-10T19:57:35.033Z,85.60
2018-02-10T19:59:38.485Z,85.40
2018-02-10T20:01:41.118Z,85.40
2018-02-10T20:03:43.726Z,85.10
2018-02-10T20:05:46.323Z,85.80
2018-02-10T20:07:48.938Z,86.20
2018-02-10T20:09:51.544Z,86.70
2018-02-10T20:11:54.157Z,86.30
2018-02-10T20:13:56.748Z,85.20
2018-02-10T20:16:00.122Z,86.00
2018-02-10T20:18:02.729Z,85.90
2018-02-10T20:20:05.321Z,86.50
2018-02-10T20:22:07.937Z,86.30
2018-02-10T20:24:10.550Z,86.10
2018-02-10T20:26:13.908Z,85.20
2018-02-10T20:28:16.529Z,85.20
2018-02-10T20:30:19.134Z,86.00
2018-02-10T20:32:21.780Z,85.60
2018-02-10T20:34:24.370Z,85.30
2018-02-10T20:36:26.997Z,85.40
2018-02-10T20:38:30.394Z,85.60
2018-02-10T20:40:33.755Z,85.80
2018-02-10T20:42:36.380Z,85.70
2018-02-10T20:44:38.968Z,85.40
2018-02-10T20:46:41.575Z,85.20
2018-02-10T20:48:44.971Z,85.10
2018-02-10T20:50:47.573Z,85.20
2018-02-10T20:52:50.954Z,86.20
2018-02-10T20:54:53.565Z,86.20
2018-02-10T20:56:56.149Z,86.00
2018-02-10T20:58:58.763Z,85.80
2018-02-10T21:01:01.377Z,85.40
2018-02-10T21:03:03.964Z,85.50
2018-02-10T21:05:06.939Z,85.50
2018-02-10T21:07:09.555Z,85.80
2018-02-10T21:09:12.161Z,85.70
2018-02-10T21:11:14.809Z,85.80
2018-02-10T21:13:18.184Z,86.90
2018-02-10T21:15:20.805Z,86.30
2018-02-10T21:17:23.415Z,86.30
2018-02-10T21:19:26.029Z,85.90
2018-02-10T21:21:28.612Z,86.10
2018-02-10T21:23:31.214Z,86.10
2018-02-10T21:25:34.653Z,86.20
2018-02-10T21:27:37.209Z,86.10
2018-02-10T21:29:39.819Z,85.90
2018-02-10T21:31:42.482Z,85.90
2018-02-10T21:33:45.841Z,86.10
2018-02-10T21:35:48.458Z,86.10
2018-02-10T21:37:51.072Z,86.10
2018-02-10T21:39:54.430Z,86.10
2018-02-10T21:41:57.029Z,86.10
2018-02-10T21:44:00.451Z,86.10
2018-02-10T21:46:03.062Z,86.10
2018-02-10T21:48:05.703Z,86.10
2018-02-10T21:50:08.313Z,86.60
2018-02-10T21:52:10.944Z,87.40
2018-02-10T21:54:13.556Z,87.00
2018-02-10T21:56:16.921Z,86.20
2018-02-10T21:58:19.521Z,86.20
2018-02-10T22:00:22.145Z,85.90
2018-02-10T22:02:25.509Z,86.10
2018-02-10T22:04:28.914Z,86.20
2018-02-10T22:06:31.509Z,86.20
2018-02-10T22:08:34.867Z,86.00
2018-02-10T22:10:37.484Z,86.00
2018-02-10T22:12:40.172Z,85.70
2018-02-10T22:14:42.761Z,86.10
2018-02-10T22:16:45.380Z,85.70
2018-02-10T22:18:47.973Z,86.00
2018-02-10T22:20:51.325Z,85.40
2018-02-10T22:22:54.016Z,85.40
2018-02-10T22:24:56.722Z,85.70
2018-02-10T22:27:00.096Z,85.60
2018-02-10T22:29:02.704Z,86.10
2018-02-10T22:31:05.292Z,86.80
2018-02-10T22:33:07.918Z,86.00
2018-02-10T22:35:10.504Z,86.00
2018-02-10T22:37:13.910Z,86.60
2018-02-10T22:39:16.500Z,86.00
2018-02-10T22:41:19.117Z,86.30
2018-02-10T22:43:21.766Z,86.20
2018-02-10T22:45:24.366Z,85.90
2018-02-10T22:47:27.016Z,85.90
2018-02-10T22:49:29.623Z,85.80
2018-02-10T22:51:32.221Z,85.60
2018-02-10T22:53:35.585Z,85.20
2018-02-10T22:55:38.195Z,85.20
2018-02-10T22:57:40.781Z,85.80
2018-02-10T22:59:43.410Z,85.90
2018-02-10T23:01:46.028Z,86.10
2018-02-10T23:03:48.665Z,85.80
2018-02-10T23:05:51.288Z,86.20
2018-02-10T23:07:53.875Z,86.30
2018-02-10T23:09:56.488Z,86.10
2018-02-10T23:11:59.070Z,86.00
2018-02-10T23:14:01.685Z,85.90
2018-02-10T23:16:04.293Z,85.40
2018-02-10T23:18:06.936Z,86.10
2018-02-10T23:20:09.748Z,85.50
2018-02-10T23:22:12.352Z,85.60
2018-02-10T23:24:15.733Z,86.80
2018-02-10T23:26:18.438Z,86.80
2018-02-10T23:28:21.144Z,86.40
2018-02-10T23:30:23.748Z,86.90
2018-02-10T23:32:26.372Z,86.80
2018-02-10T23:34:28.970Z,86.40
2018-02-10T23:36:31.569Z,86.80
2018-02-10T23:38:34.189Z,86.90
2018-02-10T23:40:36.866Z,86.80
2018-02-10T23:42:39.480Z,86.90
2018-02-10T23:44:42.082Z,87.60
2018-02-10T23:46:44.712Z,87.50
2018-02-10T23:48:47.318Z,87.10
2018-02-10T23:50:49.918Z,87.20
2018-02-10T23:52:52.568Z,87.60
2018-02-10T23:54:55.153Z,87.90
2018-02-10T23:56:57.757Z,87.80
2018-02-10T23:59:01.141Z,87.60
